Lonoke, Arkansas
Current Conditions -  °F | °C
As of 5:58 PM on Thursday 27 Nov 2014 (Local Time) from KLRF Reporting Station
Haze Haze  
Wind Chill: 37°   Ceiling: Unl
Heat Index: 37°   Visibility: 3mi
Dew Point: 29°   Wind: 0mph
Humidity: 74%   Direction: NA
Pressure: 30.47"   Gusts: NA
Location:  34.78°N, 91.9°W
Report Text: KLRF 272358Z AUTO 00000KT 3SM HZ CLR 03/M02 A3047 RMK AO2 SLP324 T00271016 10095 20027 55003 $
Loading
Personal Weather Stations






























Interactive Weather Map New forecast layout! Learn more

10-Day Weather Forecast

Advertisements
Track Severe Weather on mobile